Port Colborne, Canada
Current Conditions -  °F | °C
As of 1:53 AM on Monday 24 Nov 2014 (Local Time) from KIAG Reporting Station
Light Rain Light Rain  
Wind Chill: 50°   Ceiling: 8500
Heat Index: 50°   Visibility: 6mi
Dew Point: 46°   Wind: 14mph
Humidity: 86%   Direction: 130°SE
Pressure: 29.38"   Gusts: NA
Location:  42.89°N, 79.25°W
Report Text: KIAG 240653Z AUTO 13012KT 6SM -RA BR FEW065 OVC085 10/08 A2938 RMK AO2 PRESFR SLP952 P0011 T01000078 $
Loading
Personal Weather Stations






























Interactive Weather Map New forecast layout! Learn more

10-Day Weather Forecast

Advertisements
Track Severe Weather on mobile